sensor_id;sensor_type;location;lat;lon;timestamp;P1;durP1;ratioP1;P2;durP2;ratioP2
57605;SDS011;43430;48.204;11.556;2022-08-01T00:02:21;2.97;;;2.63;;
57605;SDS011;43430;48.204;11.556;2022-08-01T00:04:46;2.60;;;2.08;;
57605;SDS011;43430;48.204;11.556;2022-08-01T00:07:11;2.28;;;2.17;;
57605;SDS011;43430;48.204;11.556;2022-08-01T00:09:37;3.80;;;2.05;;
57605;SDS011;43430;48.204;11.556;2022-08-01T00:12:02;2.75;;;2.10;;
57605;SDS011;43430;48.204;11.556;2022-08-01T00:14:29;2.45;;;2.20;;
57605;SDS011;43430;48.204;11.556;2022-08-01T00:16:55;2.53;;;2.17;;
57605;SDS011;43430;48.204;11.556;2022-08-01T00:19:20;3.97;;;2.50;;
57605;SDS011;43430;48.204;11.556;2022-08-01T00:21:46;3.92;;;2.42;;
57605;SDS011;43430;48.204;11.556;2022-08-01T00:24:11;2.60;;;2.40;;
57605;SDS011;43430;48.204;11.556;2022-08-01T00:26:36;3.47;;;2.60;;
57605;SDS011;43430;48.204;11.556;2022-08-01T00:29:02;4.72;;;2.00;;
57605;SDS011;43430;48.204;11.556;2022-08-01T00:31:27;3.95;;;2.30;;
57605;SDS011;43430;48.204;11.556;2022-08-01T00:33:52;2.95;;;2.10;;
57605;SDS011;43430;48.204;11.556;2022-08-01T00:36:18;4.60;;;2.38;;
57605;SDS011;43430;48.204;11.556;2022-08-01T00:38:43;4.07;;;2.47;;
57605;SDS011;43430;48.204;11.556;2022-08-01T00:41:08;3.88;;;2.35;;
57605;SDS011;43430;48.204;11.556;2022-08-01T00:43:34;2.45;;;1.75;;
57605;SDS011;43430;48.204;11.556;2022-08-01T00:45:59;3.13;;;2.33;;
57605;SDS011;43430;48.204;11.556;2022-08-01T00:48:25;4.07;;;2.45;;
57605;SDS011;43430;48.204;11.556;2022-08-01T00:50:50;2.17;;;1.98;;
57605;SDS011;43430;48.204;11.556;2022-08-01T00:53:15;3.17;;;2.50;;
57605;SDS011;43430;48.204;11.556;2022-08-01T00:55:41;4.43;;;2.35;;
57605;SDS011;43430;48.204;11.556;2022-08-01T00:58:07;3.72;;;2.30;;
57605;SDS011;43430;48.204;11.556;2022-08-01T01:00:33;3.30;;;2.10;;
57605;SDS011;43430;48.204;11.556;2022-08-01T01:02:59;3.85;;;2.42;;
57605;SDS011;43430;48.204;11.556;2022-08-01T01:05:25;3.33;;;2.00;;
57605;SDS011;43430;48.204;11.556;2022-08-01T01:07:54;2.70;;;2.20;;
57605;SDS011;43430;48.204;11.556;2022-08-01T01:15:55;2.50;;;1.83;;
57605;SDS011;43430;48.204;11.556;2022-08-01T01:18:26;2.78;;;2.15;;
57605;SDS011;43430;48.204;11.556;2022-08-01T01:26:28;2.50;;;1.98;;
57605;SDS011;43430;48.204;11.556;2022-08-01T01:31:32;2.63;;;2.10;;
57605;SDS011;43430;48.204;11.556;2022-08-01T01:34:07;3.03;;;2.00;;
57605;SDS011;43430;48.204;11.556;2022-08-01T01:36:34;3.40;;;2.03;;
57605;SDS011;43430;48.204;11.556;2022-08-01T01:39:02;2.65;;;2.00;;
57605;SDS011;43430;48.204;11.556;2022-08-01T01:41:28;2.75;;;2.25;;
57605;SDS011;43430;48.204;11.556;2022-08-01T01:43:54;2.22;;;2.03;;
57605;SDS011;43430;48.204;11.556;2022-08-01T01:46:22;2.42;;;1.80;;
57605;SDS011;43430;48.204;11.556;2022-08-01T01:48:51;3.42;;;1.88;;
57605;SDS011;43430;48.204;11.556;2022-08-01T01:51:21;2.72;;;2.20;;
57605;SDS011;43430;48.204;11.556;2022-08-01T01:53:49;3.20;;;2.00;;
57605;SDS011;43430;48.204;11.556;2022-08-01T01:56:17;2.92;;;1.95;;
57605;SDS011;43430;48.204;11.556;2022-08-01T01:58:44;3.80;;;2.35;;
57605;SDS011;43430;48.204;11.556;2022-08-01T02:01:13;3.10;;;2.15;;
57605;SDS011;43430;48.204;11.556;2022-08-01T02:03:39;2.30;;;2.10;;
57605;SDS011;43430;48.204;11.556;2022-08-01T02:06:06;2.55;;;1.90;;
57605;SDS011;43430;48.204;11.556;2022-08-01T02:08:32;2.78;;;2.10;;
57605;SDS011;43430;48.204;11.556;2022-08-01T02:10:59;3.65;;;2.30;;
57605;SDS011;43430;48.204;11.556;2022-08-01T02:13:50;4.47;;;2.30;;
57605;SDS011;43430;48.204;11.556;2022-08-01T02:16:23;2.28;;;2.00;;
57605;SDS011;43430;48.204;11.556;2022-08-01T02:18:51;2.88;;;2.58;;
57605;SDS011;43430;48.204;11.556;2022-08-01T02:21:18;3.53;;;2.45;;
57605;SDS011;43430;48.204;11.556;2022-08-01T02:23:50;4.05;;;2.25;;
57605;SDS011;43430;48.204;11.556;2022-08-01T02:26:17;2.65;;;2.30;;
57605;SDS011;43430;48.204;11.556;2022-08-01T02:31:15;2.53;;;1.85;;
57605;SDS011;43430;48.204;11.556;2022-08-01T02:33:45;6.40;;;2.20;;
57605;SDS011;43430;48.204;11.556;2022-08-01T02:36:15;2.85;;;2.15;;
57605;SDS011;43430;48.204;11.556;2022-08-01T02:38:42;2.53;;;2.10;;
57605;SDS011;43430;48.204;11.556;2022-08-01T02:41:13;3.53;;;2.53;;
57605;SDS011;43430;48.204;11.556;2022-08-01T02:43:45;2.83;;;2.13;;
57605;SDS011;43430;48.204;11.556;2022-08-01T02:46:20;3.05;;;2.20;;
57605;SDS011;43430;48.204;11.556;2022-08-01T02:48:50;3.10;;;2.35;;
57605;SDS011;43430;48.204;11.556;2022-08-01T02:51:18;3.42;;;2.40;;
57605;SDS011;43430;48.204;11.556;2022-08-01T02:53:46;3.33;;;2.22;;
57605;SDS011;43430;48.204;11.556;2022-08-01T02:56:13;2.40;;;1.83;;
57605;SDS011;43430;48.204;11.556;2022-08-01T02:58:40;3.55;;;2.03;;
57605;SDS011;43430;48.204;11.556;2022-08-01T03:01:08;4.35;;;2.10;;
57605;SDS011;43430;48.204;11.556;2022-08-01T03:03:35;4.68;;;2.70;;
57605;SDS011;43430;48.204;11.556;2022-08-01T03:06:02;2.65;;;2.03;;
57605;SDS011;43430;48.204;11.556;2022-08-01T03:08:28;3.88;;;2.42;;
57605;SDS011;43430;48.204;11.556;2022-08-01T03:10:55;2.50;;;2.25;;
57605;SDS011;43430;48.204;11.556;2022-08-01T03:13:23;3.45;;;2.05;;
57605;SDS011;43430;48.204;11.556;2022-08-01T03:15:50;3.42;;;2.03;;
57605;SDS011;43430;48.204;11.556;2022-08-01T03:18:19;2.47;;;2.03;;
57605;SDS011;43430;48.204;11.556;2022-08-01T03:20:47;2.35;;;1.90;;
57605;SDS011;43430;48.204;11.556;2022-08-01T03:23:13;2.53;;;1.88;;
57605;SDS011;43430;48.204;11.556;2022-08-01T03:25:40;2.78;;;1.95;;
57605;SDS011;43430;48.204;11.556;2022-08-01T03:28:08;2.08;;;1.88;;
57605;SDS011;43430;48.204;11.556;2022-08-01T03:30:36;2.42;;;2.00;;
57605;SDS011;43430;48.204;11.556;2022-08-01T03:33:04;2.60;;;1.88;;
57605;SDS011;43430;48.204;11.556;2022-08-01T03:35:30;2.88;;;1.90;;
57605;SDS011;43430;48.204;11.556;2022-08-01T03:38:16;3.17;;;2.42;;
57605;SDS011;43430;48.204;11.556;2022-08-01T03:40:45;2.78;;;2.13;;
57605;SDS011;43430;48.204;11.556;2022-08-01T03:43:16;3.40;;;2.25;;
57605;SDS011;43430;48.204;11.556;2022-08-01T03:45:49;3.90;;;2.00;;
57605;SDS011;43430;48.204;11.556;2022-08-01T03:48:17;3.03;;;1.98;;
57605;SDS011;43430;48.204;11.556;2022-08-01T03:50:47;4.30;;;2.22;;
57605;SDS011;43430;48.204;11.556;2022-08-01T03:53:16;2.42;;;1.88;;
57605;SDS011;43430;48.204;11.556;2022-08-01T03:55:47;3.08;;;1.92;;
57605;SDS011;43430;48.204;11.556;2022-08-01T03:58:14;4.93;;;2.30;;
57605;SDS011;43430;48.204;11.556;2022-08-01T04:00:40;3.10;;;2.10;;
57605;SDS011;43430;48.204;11.556;2022-08-01T04:03:07;3.90;;;2.08;;
57605;SDS011;43430;48.204;11.556;2022-08-01T04:05:33;3.15;;;2.10;;
57605;SDS011;43430;48.204;11.556;2022-08-01T04:08:00;2.97;;;2.08;;
57605;SDS011;43430;48.204;11.556;2022-08-01T04:10:27;2.55;;;1.83;;
57605;SDS011;43430;48.204;11.556;2022-08-01T04:12:52;3.28;;;1.77;;
57605;SDS011;43430;48.204;11.556;2022-08-01T04:15:18;4.47;;;2.38;;
57605;SDS011;43430;48.204;11.556;2022-08-01T04:17:45;2.40;;;1.60;;
57605;SDS011;43430;48.204;11.556;2022-08-01T04:20:11;4.45;;;1.77;;
57605;SDS011;43430;48.204;11.556;2022-08-01T04:22:37;4.18;;;2.00;;
57605;SDS011;43430;48.204;11.556;2022-08-01T04:25:04;2.58;;;1.92;;
57605;SDS011;43430;48.204;11.556;2022-08-01T04:27:38;2.20;;;1.90;;
57605;SDS011;43430;48.204;11.556;2022-08-01T04:30:05;4.45;;;2.05;;
57605;SDS011;43430;48.204;11.556;2022-08-01T04:32:33;2.97;;;2.10;;
57605;SDS011;43430;48.204;11.556;2022-08-01T04:35:02;3.15;;;2.33;;
57605;SDS011;43430;48.204;11.556;2022-08-01T04:37:30;4.70;;;2.15;;
57605;SDS011;43430;48.204;11.556;2022-08-01T04:39:56;5.38;;;2.03;;
57605;SDS011;43430;48.204;11.556;2022-08-01T04:42:24;3.38;;;1.98;;
57605;SDS011;43430;48.204;11.556;2022-08-01T04:44:49;2.60;;;2.08;;
57605;SDS011;43430;48.204;11.556;2022-08-01T04:47:15;5.70;;;2.47;;
57605;SDS011;43430;48.204;11.556;2022-08-01T04:49:41;2.40;;;2.17;;
57605;SDS011;43430;48.204;11.556;2022-08-01T04:52:08;2.58;;;2.25;;
57605;SDS011;43430;48.204;11.556;2022-08-01T04:54:34;2.97;;;2.55;;
57605;SDS011;43430;48.204;11.556;2022-08-01T04:57:05;3.33;;;2.38;;
57605;SDS011;43430;48.204;11.556;2022-08-01T04:59:31;3.35;;;2.30;;
57605;SDS011;43430;48.204;11.556;2022-08-01T05:02:14;2.90;;;2.03;;
57605;SDS011;43430;48.204;11.556;2022-08-01T05:04:42;4.03;;;2.45;;
57605;SDS011;43430;48.204;11.556;2022-08-01T05:07:09;3.72;;;2.40;;
57605;SDS011;43430;48.204;11.556;2022-08-01T05:09:35;4.65;;;3.08;;
57605;SDS011;43430;48.204;11.556;2022-08-01T05:12:01;2.75;;;2.40;;
57605;SDS011;43430;48.204;11.556;2022-08-01T05:14:29;3.42;;;2.40;;
57605;SDS011;43430;48.204;11.556;2022-08-01T05:16:57;2.47;;;2.28;;
57605;SDS011;43430;48.204;11.556;2022-08-01T05:19:23;4.55;;;2.60;;
57605;SDS011;43430;48.204;11.556;2022-08-01T05:21:49;3.45;;;2.20;;
57605;SDS011;43430;48.204;11.556;2022-08-01T05:24:14;4.07;;;2.33;;
57605;SDS011;43430;48.204;11.556;2022-08-01T05:26:39;3.45;;;2.67;;
57605;SDS011;43430;48.204;11.556;2022-08-01T05:29:05;5.07;;;2.25;;
57605;SDS011;43430;48.204;11.556;2022-08-01T05:31:30;4.75;;;2.60;;
57605;SDS011;43430;48.204;11.556;2022-08-01T05:33:59;3.13;;;2.35;;
57605;SDS011;43430;48.204;11.556;2022-08-01T05:36:28;3.97;;;2.08;;
57605;SDS011;43430;48.204;11.556;2022-08-01T05:38:54;3.60;;;2.33;;
57605;SDS011;43430;48.204;11.556;2022-08-01T05:41:19;4.70;;;2.60;;
57605;SDS011;43430;48.204;11.556;2022-08-01T05:43:45;3.67;;;2.40;;
57605;SDS011;43430;48.204;11.556;2022-08-01T05:46:10;8.38;;;2.30;;
57605;SDS011;43430;48.204;11.556;2022-08-01T05:48:35;3.15;;;2.28;;
57605;SDS011;43430;48.204;11.556;2022-08-01T05:51:01;4.07;;;2.05;;
57605;SDS011;43430;48.204;11.556;2022-08-01T05:53:27;3.53;;;2.67;;
57605;SDS011;43430;48.204;11.556;2022-08-01T05:55:52;3.22;;;2.38;;
57605;SDS011;43430;48.204;11.556;2022-08-01T05:58:17;2.70;;;2.40;;
57605;SDS011;43430;48.204;11.556;2022-08-01T06:00:43;4.03;;;2.63;;
57605;SDS011;43430;48.204;11.556;2022-08-01T06:03:08;3.20;;;2.50;;
57605;SDS011;43430;48.204;11.556;2022-08-01T06:05:34;5.35;;;2.05;;
57605;SDS011;43430;48.204;11.556;2022-08-01T06:07:59;3.65;;;2.28;;
57605;SDS011;43430;48.204;11.556;2022-08-01T06:10:24;5.40;;;2.40;;
57605;SDS011;43430;48.204;11.556;2022-08-01T06:12:50;4.53;;;2.40;;
57605;SDS011;43430;48.204;11.556;2022-08-01T06:15:15;5.13;;;2.50;;
57605;SDS011;43430;48.204;11.556;2022-08-01T06:17:40;3.15;;;2.55;;
57605;SDS011;43430;48.204;11.556;2022-08-01T06:20:06;3.33;;;2.15;;
57605;SDS011;43430;48.204;11.556;2022-08-01T06:22:32;2.55;;;2.08;;
57605;SDS011;43430;48.204;11.556;2022-08-01T06:24:58;4.82;;;2.58;;
57605;SDS011;43430;48.204;11.556;2022-08-01T06:27:23;5.85;;;2.33;;
57605;SDS011;43430;48.204;11.556;2022-08-01T06:29:50;6.28;;;2.60;;
57605;SDS011;43430;48.204;11.556;2022-08-01T06:32:18;2.80;;;2.13;;
57605;SDS011;43430;48.204;11.556;2022-08-01T06:34:44;3.20;;;2.60;;
57605;SDS011;43430;48.204;11.556;2022-08-01T06:37:09;5.25;;;2.00;;
57605;SDS011;43430;48.204;11.556;2022-08-01T06:39:35;2.90;;;2.35;;
57605;SDS011;43430;48.204;11.556;2022-08-01T06:42:01;2.65;;;2.40;;
57605;SDS011;43430;48.204;11.556;2022-08-01T06:44:26;3.50;;;2.45;;
57605;SDS011;43430;48.204;11.556;2022-08-01T06:46:51;4.32;;;2.35;;
57605;SDS011;43430;48.204;11.556;2022-08-01T06:49:17;7.57;;;2.60;;
57605;SDS011;43430;48.204;11.556;2022-08-01T06:51:42;3.00;;;1.92;;
57605;SDS011;43430;48.204;11.556;2022-08-01T06:54:07;3.35;;;2.40;;
57605;SDS011;43430;48.204;11.556;2022-08-01T06:56:33;3.67;;;2.70;;
57605;SDS011;43430;48.204;11.556;2022-08-01T06:59:00;3.55;;;2.60;;
57605;SDS011;43430;48.204;11.556;2022-08-01T07:01:26;4.80;;;2.53;;
57605;SDS011;43430;48.204;11.556;2022-08-01T07:03:52;5.55;;;2.58;;
57605;SDS011;43430;48.204;11.556;2022-08-01T07:06:18;3.35;;;2.60;;
57605;SDS011;43430;48.204;11.556;2022-08-01T07:08:44;4.05;;;2.10;;
57605;SDS011;43430;48.204;11.556;2022-08-01T07:11:09;4.28;;;2.15;;
57605;SDS011;43430;48.204;11.556;2022-08-01T07:13:34;3.58;;;2.15;;
57605;SDS011;43430;48.204;11.556;2022-08-01T07:16:00;3.28;;;2.60;;
57605;SDS011;43430;48.204;11.556;2022-08-01T07:18:25;3.83;;;2.50;;
57605;SDS011;43430;48.204;11.556;2022-08-01T07:20:50;2.78;;;2.53;;
57605;SDS011;43430;48.204;11.556;2022-08-01T07:23:16;3.20;;;2.58;;
57605;SDS011;43430;48.204;11.556;2022-08-01T07:25:42;4.07;;;2.42;;
57605;SDS011;43430;48.204;11.556;2022-08-01T07:28:07;4.47;;;2.70;;
57605;SDS011;43430;48.204;11.556;2022-08-01T07:30:32;3.55;;;2.45;;
57605;SDS011;43430;48.204;11.556;2022-08-01T07:32:58;2.83;;;2.53;;
57605;SDS011;43430;48.204;11.556;2022-08-01T07:35:24;3.75;;;2.33;;
57605;SDS011;43430;48.204;11.556;2022-08-01T07:37:49;4.38;;;2.88;;
57605;SDS011;43430;48.204;11.556;2022-08-01T07:40:15;3.35;;;2.67;;
57605;SDS011;43430;48.204;11.556;2022-08-01T07:42:42;3.22;;;2.63;;
57605;SDS011;43430;48.204;11.556;2022-08-01T07:45:08;3.75;;;2.50;;
57605;SDS011;43430;48.204;11.556;2022-08-01T07:47:34;2.78;;;2.45;;
57605;SDS011;43430;48.204;11.556;2022-08-01T07:50:00;4.47;;;2.60;;
57605;SDS011;43430;48.204;11.556;2022-08-01T07:52:29;5.30;;;2.70;;
57605;SDS011;43430;48.204;11.556;2022-08-01T07:54:55;3.97;;;3.13;;
57605;SDS011;43430;48.204;11.556;2022-08-01T07:57:22;4.45;;;2.97;;
57605;SDS011;43430;48.204;11.556;2022-08-01T07:59:48;3.25;;;2.67;;
57605;SDS011;43430;48.204;11.556;2022-08-01T08:02:13;3.60;;;2.72;;
57605;SDS011;43430;48.204;11.556;2022-08-01T08:04:39;6.75;;;2.55;;
57605;SDS011;43430;48.204;11.556;2022-08-01T08:07:04;5.20;;;3.22;;
57605;SDS011;43430;48.204;11.556;2022-08-01T08:09:29;3.55;;;2.80;;
57605;SDS011;43430;48.204;11.556;2022-08-01T08:11:55;4.60;;;3.17;;
57605;SDS011;43430;48.204;11.556;2022-08-01T08:14:20;3.28;;;2.80;;
57605;SDS011;43430;48.204;11.556;2022-08-01T08:16:47;3.53;;;2.80;;
57605;SDS011;43430;48.204;11.556;2022-08-01T08:19:13;3.10;;;2.53;;
57605;SDS011;43430;48.204;11.556;2022-08-01T08:21:39;3.20;;;2.65;;
57605;SDS011;43430;48.204;11.556;2022-08-01T08:24:05;3.33;;;3.03;;
57605;SDS011;43430;48.204;11.556;2022-08-01T08:26:48;3.88;;;3.08;;
57605;SDS011;43430;48.204;11.556;2022-08-01T08:29:16;3.03;;;2.45;;
57605;SDS011;43430;48.204;11.556;2022-08-01T08:31:42;4.55;;;3.22;;
57605;SDS011;43430;48.204;11.556;2022-08-01T08:34:07;4.85;;;3.45;;
57605;SDS011;43430;48.204;11.556;2022-08-01T08:36:33;3.08;;;2.78;;
57605;SDS011;43430;48.204;11.556;2022-08-01T08:38:58;3.10;;;2.80;;
57605;SDS011;43430;48.204;11.556;2022-08-01T08:41:25;2.95;;;2.72;;
57605;SDS011;43430;48.204;11.556;2022-08-01T08:43:51;5.78;;;2.97;;
57605;SDS011;43430;48.204;11.556;2022-08-01T08:46:18;7.47;;;3.33;;
57605;SDS011;43430;48.204;11.556;2022-08-01T08:48:44;3.70;;;2.70;;
57605;SDS011;43430;48.204;11.556;2022-08-01T08:51:10;4.13;;;2.95;;
57605;SDS011;43430;48.204;11.556;2022-08-01T08:53:38;7.75;;;2.97;;
57605;SDS011;43430;48.204;11.556;2022-08-01T08:56:08;3.40;;;2.75;;
57605;SDS011;43430;48.204;11.556;2022-08-01T08:58:37;3.90;;;2.40;;
57605;SDS011;43430;48.204;11.556;2022-08-01T09:01:07;3.47;;;2.97;;
57605;SDS011;43430;48.204;11.556;2022-08-01T09:03:33;5.25;;;3.05;;
57605;SDS011;43430;48.204;11.556;2022-08-01T09:05:59;3.40;;;2.90;;
57605;SDS011;43430;48.204;11.556;2022-08-01T09:08:25;4.15;;;2.60;;
57605;SDS011;43430;48.204;11.556;2022-08-01T09:10:50;3.55;;;2.90;;
57605;SDS011;43430;48.204;11.556;2022-08-01T09:13:15;3.25;;;2.95;;
57605;SDS011;43430;48.204;11.556;2022-08-01T09:15:48;4.40;;;2.90;;
57605;SDS011;43430;48.204;11.556;2022-08-01T09:23:34;2.88;;;2.53;;
57605;SDS011;43430;48.204;11.556;2022-08-01T09:26:14;4.97;;;2.83;;
57605;SDS011;43430;48.204;11.556;2022-08-01T09:28:43;4.05;;;2.85;;
57605;SDS011;43430;48.204;11.556;2022-08-01T09:31:10;4.03;;;2.60;;
57605;SDS011;43430;48.204;11.556;2022-08-01T09:33:51;2.40;;;2.17;;
57605;SDS011;43430;48.204;11.556;2022-08-01T09:36:25;2.42;;;2.22;;
57605;SDS011;43430;48.204;11.556;2022-08-01T09:38:52;2.65;;;2.45;;
57605;SDS011;43430;48.204;11.556;2022-08-01T09:41:28;3.13;;;2.72;;
57605;SDS011;43430;48.204;11.556;2022-08-01T09:43:55;4.63;;;2.72;;
57605;SDS011;43430;48.204;11.556;2022-08-01T09:46:21;3.50;;;2.80;;
57605;SDS011;43430;48.204;11.556;2022-08-01T09:51:29;2.53;;;2.22;;
57605;SDS011;43430;48.204;11.556;2022-08-01T09:53:56;3.35;;;2.20;;
57605;SDS011;43430;48.204;11.556;2022-08-01T09:56:21;3.78;;;2.38;;
57605;SDS011;43430;48.204;11.556;2022-08-01T10:01:21;3.20;;;2.42;;
57605;SDS011;43430;48.204;11.556;2022-08-01T10:03:47;4.53;;;2.42;;
57605;SDS011;43430;48.204;11.556;2022-08-01T10:06:28;4.43;;;2.65;;
57605;SDS011;43430;48.204;11.556;2022-08-01T10:08:53;2.67;;;2.20;;
57605;SDS011;43430;48.204;11.556;2022-08-01T10:11:18;2.97;;;2.15;;
57605;SDS011;43430;48.204;11.556;2022-08-01T10:13:46;2.22;;;2.03;;
57605;SDS011;43430;48.204;11.556;2022-08-01T10:16:13;3.22;;;2.38;;
57605;SDS011;43430;48.204;11.556;2022-08-01T10:18:39;3.53;;;2.40;;
57605;SDS011;43430;48.204;11.556;2022-08-01T10:21:07;3.50;;;2.72;;
57605;SDS011;43430;48.204;11.556;2022-08-01T10:23:34;2.88;;;2.60;;
57605;SDS011;43430;48.204;11.556;2022-08-01T10:26:00;5.22;;;2.60;;
57605;SDS011;43430;48.204;11.556;2022-08-01T10:28:27;2.78;;;2.58;;
57605;SDS011;43430;48.204;11.556;2022-08-01T10:30:56;2.25;;;2.00;;
57605;SDS011;43430;48.204;11.556;2022-08-01T10:33:23;2.70;;;2.47;;
57605;SDS011;43430;48.204;11.556;2022-08-01T10:35:49;2.72;;;2.15;;
57605;SDS011;43430;48.204;11.556;2022-08-01T10:38:15;2.08;;;1.98;;
57605;SDS011;43430;48.204;11.556;2022-08-01T10:40:41;2.33;;;2.10;;
57605;SDS011;43430;48.204;11.556;2022-08-01T10:43:09;2.50;;;2.30;;
57605;SDS011;43430;48.204;11.556;2022-08-01T10:45:35;3.65;;;2.20;;
57605;SDS011;43430;48.204;11.556;2022-08-01T10:50:49;3.85;;;2.28;;
57605;SDS011;43430;48.204;11.556;2022-08-01T10:55:45;4.95;;;2.78;;
57605;SDS011;43430;48.204;11.556;2022-08-01T10:58:10;1.95;;;1.85;;
57605;SDS011;43430;48.204;11.556;2022-08-01T11:00:35;3.83;;;2.40;;
57605;SDS011;43430;48.204;11.556;2022-08-01T11:03:01;3.22;;;2.38;;
57605;SDS011;43430;48.204;11.556;2022-08-01T11:05:32;2.50;;;2.30;;
57605;SDS011;43430;48.204;11.556;2022-08-01T11:08:07;2.70;;;2.50;;
57605;SDS011;43430;48.204;11.556;2022-08-01T11:10:39;2.85;;;2.40;;
57605;SDS011;43430;48.204;11.556;2022-08-01T11:13:07;4.70;;;2.10;;
57605;SDS011;43430;48.204;11.556;2022-08-01T11:15:42;2.25;;;2.00;;
57605;SDS011;43430;48.204;11.556;2022-08-01T11:20:54;3.88;;;1.95;;
57605;SDS011;43430;48.204;11.556;2022-08-01T11:23:22;4.00;;;2.25;;
57605;SDS011;43430;48.204;11.556;2022-08-01T11:38:43;2.35;;;2.00;;
57605;SDS011;43430;48.204;11.556;2022-08-01T11:41:14;2.65;;;2.17;;
57605;SDS011;43430;48.204;11.556;2022-08-01T11:43:54;2.20;;;2.10;;
57605;SDS011;43430;48.204;11.556;2022-08-01T11:54:32;4.93;;;2.00;;
57605;SDS011;43430;48.204;11.556;2022-08-01T11:57:07;3.15;;;2.00;;
57605;SDS011;43430;48.204;11.556;2022-08-01T11:59:35;4.20;;;2.20;;
57605;SDS011;43430;48.204;11.556;2022-08-01T12:02:15;2.78;;;2.20;;
57605;SDS011;43430;48.204;11.556;2022-08-01T12:07:20;2.35;;;2.10;;
57605;SDS011;43430;48.204;11.556;2022-08-01T12:09:47;2.47;;;2.28;;
57605;SDS011;43430;48.204;11.556;2022-08-01T12:12:16;3.05;;;2.30;;
57605;SDS011;43430;48.204;11.556;2022-08-01T12:14:42;2.25;;;1.80;;
57605;SDS011;43430;48.204;11.556;2022-08-01T12:17:09;2.55;;;2.30;;
57605;SDS011;43430;48.204;11.556;2022-08-01T12:19:35;2.60;;;1.88;;
57605;SDS011;43430;48.204;11.556;2022-08-01T12:22:12;4.20;;;2.35;;
57605;SDS011;43430;48.204;11.556;2022-08-01T12:24:39;4.25;;;1.95;;
57605;SDS011;43430;48.204;11.556;2022-08-01T12:27:07;2.25;;;2.05;;
57605;SDS011;43430;48.204;11.556;2022-08-01T12:32:01;4.55;;;2.22;;
57605;SDS011;43430;48.204;11.556;2022-08-01T12:34:28;2.22;;;2.08;;
57605;SDS011;43430;48.204;11.556;2022-08-01T12:36:55;2.08;;;1.77;;
57605;SDS011;43430;48.204;11.556;2022-08-01T12:39:21;2.13;;;1.92;;
57605;SDS011;43430;48.204;11.556;2022-08-01T12:41:53;5.13;;;1.70;;
57605;SDS011;43430;48.204;11.556;2022-08-01T12:44:19;2.22;;;1.90;;
57605;SDS011;43430;48.204;11.556;2022-08-01T12:46:44;3.25;;;2.20;;
57605;SDS011;43430;48.204;11.556;2022-08-01T12:49:09;2.20;;;2.00;;
57605;SDS011;43430;48.204;11.556;2022-08-01T12:51:35;4.95;;;2.33;;
57605;SDS011;43430;48.204;11.556;2022-08-01T12:54:00;4.25;;;1.70;;
57605;SDS011;43430;48.204;11.556;2022-08-01T12:56:32;2.20;;;2.00;;
57605;SDS011;43430;48.204;11.556;2022-08-01T12:58:58;2.45;;;2.00;;
57605;SDS011;43430;48.204;11.556;2022-08-01T13:01:27;2.80;;;1.90;;
57605;SDS011;43430;48.204;11.556;2022-08-01T13:04:00;2.00;;;1.90;;
57605;SDS011;43430;48.204;11.556;2022-08-01T13:06:29;2.15;;;1.90;;
57605;SDS011;43430;48.204;11.556;2022-08-01T13:08:55;2.90;;;1.75;;
57605;SDS011;43430;48.204;11.556;2022-08-01T13:11:30;2.28;;;2.03;;
57605;SDS011;43430;48.204;11.556;2022-08-01T13:13:56;2.35;;;1.80;;
57605;SDS011;43430;48.204;11.556;2022-08-01T13:16:22;2.20;;;1.83;;
57605;SDS011;43430;48.204;11.556;2022-08-01T13:18:50;2.63;;;2.00;;
57605;SDS011;43430;48.204;11.556;2022-08-01T13:21:20;2.92;;;1.75;;
57605;SDS011;43430;48.204;11.556;2022-08-01T13:29:17;2.03;;;1.75;;
57605;SDS011;43430;48.204;11.556;2022-08-01T13:31:48;3.85;;;1.80;;
57605;SDS011;43430;48.204;11.556;2022-08-01T13:34:13;1.73;;;1.63;;
57605;SDS011;43430;48.204;11.556;2022-08-01T13:36:39;1.67;;;1.58;;
57605;SDS011;43430;48.204;11.556;2022-08-01T13:39:05;1.67;;;1.58;;
57605;SDS011;43430;48.204;11.556;2022-08-01T13:41:50;1.48;;;1.38;;
57605;SDS011;43430;48.204;11.556;2022-08-01T13:44:16;1.90;;;1.63;;
57605;SDS011;43430;48.204;11.556;2022-08-01T13:46:42;2.25;;;1.80;;
57605;SDS011;43430;48.204;11.556;2022-08-01T13:49:10;1.67;;;1.52;;
57605;SDS011;43430;48.204;11.556;2022-08-01T13:51:37;6.15;;;1.52;;
57605;SDS011;43430;48.204;11.556;2022-08-01T13:54:04;2.08;;;1.25;;
57605;SDS011;43430;48.204;11.556;2022-08-01T13:56:30;1.48;;;1.38;;
57605;SDS011;43430;48.204;11.556;2022-08-01T13:58:57;1.63;;;1.52;;
57605;SDS011;43430;48.204;11.556;2022-08-01T14:01:22;2.67;;;1.63;;
57605;SDS011;43430;48.204;11.556;2022-08-01T14:03:49;1.95;;;1.77;;
57605;SDS011;43430;48.204;11.556;2022-08-01T14:06:15;1.80;;;1.58;;
57605;SDS011;43430;48.204;11.556;2022-08-01T14:08:42;10.02;;;1.88;;
57605;SDS011;43430;48.204;11.556;2022-08-01T14:11:08;2.53;;;1.70;;
57605;SDS011;43430;48.204;11.556;2022-08-01T14:13:33;3.88;;;2.22;;
57605;SDS011;43430;48.204;11.556;2022-08-01T14:15:59;2.20;;;1.70;;
57605;SDS011;43430;48.204;11.556;2022-08-01T14:18:25;1.67;;;1.58;;
57605;SDS011;43430;48.204;11.556;2022-08-01T14:20:50;4.70;;;1.80;;
57605;SDS011;43430;48.204;11.556;2022-08-01T14:23:16;3.40;;;1.58;;
57605;SDS011;43430;48.204;11.556;2022-08-01T14:25:42;1.70;;;1.60;;
57605;SDS011;43430;48.204;11.556;2022-08-01T14:28:08;4.07;;;1.80;;
57605;SDS011;43430;48.204;11.556;2022-08-01T14:30:33;2.33;;;1.77;;
57605;SDS011;43430;48.204;11.556;2022-08-01T14:32:59;5.95;;;2.20;;
57605;SDS011;43430;48.204;11.556;2022-08-01T14:35:24;5.13;;;1.88;;
57605;SDS011;43430;48.204;11.556;2022-08-01T14:37:50;3.00;;;2.15;;
57605;SDS011;43430;48.204;11.556;2022-08-01T14:40:16;2.13;;;1.88;;
57605;SDS011;43430;48.204;11.556;2022-08-01T14:42:41;3.95;;;1.92;;
57605;SDS011;43430;48.204;11.556;2022-08-01T14:45:09;3.35;;;1.75;;
57605;SDS011;43430;48.204;11.556;2022-08-01T14:47:36;2.05;;;1.80;;
57605;SDS011;43430;48.204;11.556;2022-08-01T14:50:03;3.30;;;2.10;;
57605;SDS011;43430;48.204;11.556;2022-08-01T14:52:31;4.05;;;1.90;;
57605;SDS011;43430;48.204;11.556;2022-08-01T14:54:57;2.70;;;1.80;;
57605;SDS011;43430;48.204;11.556;2022-08-01T14:57:23;7.07;;;2.20;;
57605;SDS011;43430;48.204;11.556;2022-08-01T14:59:48;2.58;;;2.10;;
57605;SDS011;43430;48.204;11.556;2022-08-01T15:02:13;3.97;;;2.28;;
57605;SDS011;43430;48.204;11.556;2022-08-01T15:04:42;2.28;;;1.65;;
57605;SDS011;43430;48.204;11.556;2022-08-01T15:07:08;2.88;;;1.70;;
57605;SDS011;43430;48.204;11.556;2022-08-01T15:09:33;2.13;;;1.90;;
57605;SDS011;43430;48.204;11.556;2022-08-01T15:11:58;2.40;;;2.20;;
57605;SDS011;43430;48.204;11.556;2022-08-01T15:14:24;2.20;;;1.80;;
57605;SDS011;43430;48.204;11.556;2022-08-01T15:17:08;2.60;;;2.03;;
57605;SDS011;43430;48.204;11.556;2022-08-01T15:19:33;3.38;;;1.48;;
57605;SDS011;43430;48.204;11.556;2022-08-01T15:21:59;6.47;;;2.03;;
57605;SDS011;43430;48.204;11.556;2022-08-01T15:24:24;5.38;;;2.00;;
57605;SDS011;43430;48.204;11.556;2022-08-01T15:26:50;5.07;;;2.05;;
57605;SDS011;43430;48.204;11.556;2022-08-01T15:29:15;2.55;;;1.80;;
57605;SDS011;43430;48.204;11.556;2022-08-01T15:31:40;2.92;;;2.22;;
57605;SDS011;43430;48.204;11.556;2022-08-01T15:34:06;3.60;;;1.85;;
57605;SDS011;43430;48.204;11.556;2022-08-01T15:36:31;5.88;;;2.80;;
57605;SDS011;43430;48.204;11.556;2022-08-01T15:38:56;4.03;;;1.92;;
57605;SDS011;43430;48.204;11.556;2022-08-01T15:41:22;3.42;;;1.90;;